Terminal Aerodrome Forecast
Issued by NWS Charleston, WV

Current Version | Previous Version | Graphics & Text | Print | Product List | Glossary On
Versions: 1 2 3 4 5 6 7 8 9 10 11 12 13 14 15 16 17 18 19 20 21 22 23
000
FTUS41 KRLX 262355
TAFCRW
TAF
KCRW 262355Z 2700/2724 VRB03KT P6SM BKN080
     FM270200 VRB03KT 4SM TSRA BR BKN030CB BKN080
      TEMPO 2702/2704 25015G30KT 1SM +TSRA BKN020 OVC035CB
     FM270500 VRB03KT 2SM TSRA BR BKN030CB BKN050
     FM270800 11007KT 2SM SHRA BR VCTS BKN020CB
     FM271400 15009KT 4SM SHRA BR BKN020
     FM271600 20011G18KT 5SM SHRA BR VCTS BKN025CB
     FM271700 21010G17KT P6SM BKN025=

USA.gov is the U.S. government's official web portal to all federal, state and local government web resources and services.